createdAt,value
2023-04-08T14:02:22.043Z,8.90
2023-04-08T14:04:49.541Z,11.00
2023-04-08T14:07:16.788Z,10.40
2023-04-08T14:09:44.092Z,10.80
2023-04-08T14:12:11.448Z,11.40
2023-04-08T14:14:38.716Z,10.20
2023-04-08T14:17:06.011Z,8.90
2023-04-08T14:19:33.353Z,8.20
2023-04-08T14:22:01.247Z,7.90
2023-04-08T14:24:28.363Z,7.40
2023-04-08T14:26:55.793Z,7.10
2023-04-08T14:29:23.064Z,6.90
2023-04-08T14:31:50.333Z,6.80
2023-04-08T14:34:17.534Z,6.90
2023-04-08T14:36:45.636Z,6.80
2023-04-08T14:39:13.871Z,7.00
2023-04-08T14:41:41.623Z,6.90
2023-04-08T14:44:08.755Z,6.90
2023-04-08T14:46:36.032Z,6.80
2023-04-08T14:49:03.328Z,6.60
2023-04-08T14:51:31.773Z,6.60
2023-04-08T14:53:59.211Z,6.60
2023-04-08T14:56:26.590Z,6.60
2023-04-08T14:58:53.763Z,6.70
2023-04-08T15:01:21.104Z,6.70
2023-04-08T15:03:48.413Z,6.70
2023-04-08T15:06:17.951Z,6.80
2023-04-08T15:08:46.280Z,6.80
2023-04-08T15:11:13.458Z,6.80
2023-04-08T15:13:40.878Z,6.80
2023-04-08T15:16:08.270Z,6.80
2023-04-08T15:18:36.395Z,6.80
2023-04-08T15:21:03.712Z,6.70
2023-04-08T15:23:31.725Z,6.70
2023-04-08T15:25:58.970Z,6.70
2023-04-08T15:30:45.291Z,6.60
2023-04-08T15:33:12.572Z,6.60
2023-04-08T15:35:40.120Z,6.60
2023-04-08T15:38:07.949Z,6.60
2023-04-08T15:40:35.260Z,6.50
2023-04-08T15:45:15.475Z,6.40
2023-04-08T15:47:42.731Z,6.40
2023-04-08T15:50:10.538Z,6.40
2023-04-08T15:52:37.722Z,6.40
2023-04-08T15:55:05.333Z,6.30
2023-04-08T15:57:32.744Z,6.30
2023-04-08T16:00:00.093Z,6.30
2023-04-08T16:02:28.234Z,6.20
2023-04-08T16:04:55.694Z,6.20
2023-04-08T16:07:22.859Z,6.20
2023-04-08T16:09:50.092Z,6.20
2023-04-08T16:12:17.320Z,6.10
2023-04-08T16:14:44.529Z,6.10
2023-04-08T16:17:12.280Z,6.10
2023-04-08T16:19:39.569Z,6.10
2023-04-08T16:22:07.283Z,6.00
2023-04-08T16:24:37.166Z,6.00
2023-04-08T16:27:04.869Z,6.00
2023-04-08T16:29:32.736Z,5.90
2023-04-08T16:32:00.093Z,5.90
2023-04-08T16:34:28.393Z,5.80
2023-04-08T16:36:55.690Z,5.80
2023-04-08T16:39:22.950Z,5.80
2023-04-08T16:41:50.242Z,5.80
2023-04-08T16:44:17.433Z,5.80
2023-04-08T16:46:44.797Z,5.80
2023-04-08T16:49:14.495Z,5.80
2023-04-08T16:51:42.926Z,5.70
2023-04-08T16:54:10.123Z,5.70
2023-04-08T16:56:37.334Z,5.60
2023-04-08T16:59:04.646Z,5.60
2023-04-08T17:01:32.125Z,5.60
2023-04-08T17:03:59.629Z,5.50
2023-04-08T17:06:27.761Z,5.50
2023-04-08T17:08:54.965Z,5.50
2023-04-08T17:13:50.561Z,5.50
2023-04-08T17:16:18.767Z,5.60
2023-04-08T17:18:46.597Z,5.50
2023-04-08T17:23:35.938Z,5.50
2023-04-08T17:26:07.914Z,5.50
2023-04-08T17:28:35.897Z,5.50
2023-04-08T17:31:03.172Z,5.50
2023-04-08T17:33:30.559Z,5.50
2023-04-08T17:35:57.842Z,5.50
2023-04-08T17:38:25.086Z,5.50
2023-04-08T17:40:52.329Z,5.50
2023-04-08T17:43:19.564Z,5.50
2023-04-08T17:45:47.134Z,5.50
2023-04-08T17:48:14.714Z,5.50
2023-04-08T17:50:41.962Z,5.50
2023-04-08T17:53:09.356Z,5.50
2023-04-08T17:55:36.599Z,5.50
2023-04-08T17:58:04.629Z,5.50
2023-04-08T18:00:31.861Z,5.50
2023-04-08T18:02:59.216Z,5.50
2023-04-08T18:05:27.447Z,5.50
2023-04-08T18:07:54.640Z,5.50
2023-04-08T18:10:23.330Z,5.40
2023-04-08T18:12:54.763Z,5.40
2023-04-08T18:15:31.257Z,5.40
2023-04-08T18:17:58.581Z,5.40
2023-04-08T18:20:25.916Z,5.40
2023-04-08T18:22:53.048Z,5.30
2023-04-08T18:25:22.785Z,5.30
2023-04-08T18:27:50.569Z,5.40
2023-04-08T18:30:17.919Z,5.40
2023-04-08T18:32:45.091Z,5.40
2023-04-08T18:35:12.320Z,5.30
2023-04-08T18:37:39.530Z,5.30
2023-04-08T18:40:08.163Z,5.30
2023-04-08T18:42:35.679Z,5.30
2023-04-08T18:45:02.978Z,5.30
2023-04-08T18:47:30.221Z,5.30
2023-04-08T18:49:57.996Z,5.20
2023-04-08T18:52:25.451Z,5.20
2023-04-08T18:54:53.041Z,5.20
2023-04-08T18:57:20.356Z,5.20
2023-04-08T18:59:48.720Z,5.20
2023-04-08T19:02:16.812Z,5.10
2023-04-08T19:04:44.269Z,5.10
2023-04-08T19:07:12.338Z,5.10
2023-04-08T19:09:40.357Z,5.10
2023-04-08T19:12:07.518Z,5.10
2023-04-08T19:14:34.764Z,5.10
2023-04-08T19:17:01.957Z,5.10
2023-04-08T19:19:29.232Z,5.10
2023-04-08T19:21:56.412Z,5.10
2023-04-08T19:24:23.724Z,5.10
2023-04-08T19:26:53.142Z,5.10
2023-04-08T19:29:23.156Z,5.10
2023-04-08T19:31:50.566Z,5.10
2023-04-08T19:34:17.774Z,5.00
2023-04-08T19:36:44.978Z,5.00
2023-04-08T19:39:12.235Z,5.00
2023-04-08T19:41:39.409Z,4.90
2023-04-08T19:44:06.741Z,5.00
2023-04-08T19:46:34.159Z,5.00
2023-04-08T19:49:01.642Z,5.00
2023-04-08T19:51:29.608Z,5.10
2023-04-08T19:53:57.551Z,5.00
2023-04-08T19:56:25.812Z,5.10
2023-04-08T19:58:53.499Z,5.10
2023-04-08T20:01:21.563Z,5.10
2023-04-08T20:03:50.786Z,5.10
2023-04-08T20:06:19.757Z,5.10
2023-04-08T20:08:47.084Z,5.10
2023-04-08T20:11:14.310Z,5.10
2023-04-08T20:13:41.877Z,5.10
2023-04-08T20:16:09.204Z,5.10
2023-04-08T20:18:36.664Z,5.10
2023-04-08T20:21:04.819Z,5.10
2023-04-08T20:23:32.107Z,5.10
2023-04-08T20:25:59.866Z,5.10
2023-04-08T20:28:27.368Z,5.10
2023-04-08T20:30:54.769Z,5.10
2023-04-08T20:33:22.099Z,5.10
2023-04-08T20:35:50.654Z,5.10
2023-04-08T20:38:17.949Z,5.10
2023-04-08T20:40:46.097Z,5.10
2023-04-08T20:43:13.406Z,5.10
2023-04-08T20:45:40.647Z,5.10
2023-04-08T20:48:07.944Z,5.10
2023-04-08T20:50:35.555Z,5.10
2023-04-08T20:53:03.260Z,5.10
2023-04-08T20:55:30.869Z,5.00
2023-04-08T20:57:58.165Z,5.00
2023-04-08T21:00:25.254Z,5.00
2023-04-08T21:02:53.203Z,5.10
2023-04-08T21:05:20.523Z,5.10
2023-04-08T21:07:47.760Z,5.10
2023-04-08T21:10:16.200Z,5.10
2023-04-08T21:12:45.372Z,5.00
2023-04-08T21:15:12.565Z,5.10
2023-04-08T21:17:39.917Z,5.00
2023-04-08T21:20:08.008Z,5.10
2023-04-08T21:22:35.401Z,5.10
2023-04-08T21:25:02.635Z,5.10
2023-04-08T21:27:29.847Z,5.10
2023-04-08T21:29:56.989Z,5.10
2023-04-08T21:32:24.461Z,5.10
2023-04-08T21:34:55.363Z,5.10
2023-04-08T21:37:25.174Z,5.10
2023-04-08T21:39:53.889Z,5.00
2023-04-08T21:42:22.954Z,5.10
2023-04-08T21:44:50.197Z,5.10
2023-04-08T21:47:17.953Z,5.00
2023-04-08T21:49:45.642Z,5.00
2023-04-08T21:52:12.870Z,5.00
2023-04-08T21:54:40.184Z,5.00
2023-04-08T21:57:07.729Z,5.00
2023-04-08T21:59:35.071Z,5.00
2023-04-08T22:02:03.390Z,5.00
2023-04-08T22:04:30.957Z,5.00
2023-04-08T22:06:58.499Z,5.00
2023-04-08T22:09:25.681Z,4.90
2023-04-08T22:11:53.002Z,4.90
2023-04-08T22:14:20.416Z,4.90
2023-04-08T22:16:47.736Z,4.90
2023-04-08T22:19:15.736Z,4.90
2023-04-08T22:21:42.968Z,4.90
2023-04-08T22:24:10.820Z,4.90
2023-04-08T22:26:38.045Z,4.90
2023-04-08T22:29:05.866Z,4.90
2023-04-08T22:31:33.773Z,4.90
2023-04-08T22:34:01.202Z,4.90
2023-04-08T22:36:28.817Z,4.90
2023-04-08T22:38:56.041Z,4.90
2023-04-08T22:41:25.979Z,4.90
2023-04-08T22:43:53.174Z,4.90
2023-04-08T22:46:20.568Z,4.90
2023-04-08T22:48:49.571Z,4.90
2023-04-08T22:51:17.155Z,4.90
2023-04-08T22:53:44.590Z,4.90
2023-04-08T22:56:11.945Z,4.90
2023-04-08T22:58:39.264Z,5.00
2023-04-08T23:01:14.364Z,4.90
2023-04-08T23:03:42.118Z,4.90
2023-04-08T23:06:09.445Z,4.90
2023-04-08T23:08:36.637Z,4.90
2023-04-08T23:11:03.809Z,4.90
2023-04-08T23:13:31.284Z,4.90
2023-04-08T23:15:59.050Z,4.80
2023-04-08T23:18:26.559Z,4.80
2023-04-08T23:20:54.793Z,4.90
2023-04-08T23:23:24.415Z,4.80
2023-04-08T23:25:54.953Z,4.80
2023-04-08T23:28:24.058Z,4.80
2023-04-08T23:30:51.355Z,4.80
2023-04-08T23:33:18.607Z,4.80
2023-04-08T23:35:46.503Z,4.80
2023-04-08T23:38:13.960Z,4.70
2023-04-08T23:40:41.323Z,4.70
2023-04-08T23:43:08.439Z,4.80
2023-04-08T23:45:35.897Z,4.70
2023-04-08T23:48:03.124Z,4.70
2023-04-08T23:50:30.554Z,4.70
2023-04-08T23:52:59.403Z,4.80
2023-04-08T23:55:26.749Z,4.80
2023-04-08T23:57:53.975Z,4.80
